This is the latest recevied weather packets stored in our database for station/object N5SRF. If no packets are shown the sender has not sent any weather packets the latest 10 day(s).
| Time | Temp. | Humidity | Pressure | Rain* | Wind** | Luminosity | Snow |
|---|---|---|---|---|---|---|---|
| 1788096015 | 27.78° C | 90% | 1021.5 hPa | 0 mm | - | 119 W/m² | - |
| 1788095714 | 27.78° C | 89% | 1021.3 hPa | 0 mm | - | 105 W/m² | - |
| 1788095409 | 27.22° C | 93% | 1021.3 hPa | 0 mm | - | 94 W/m² | - |
| 1788095103 | 26.11° C | 94% | 1021.3 hPa | 0 mm | - | 84 W/m² | - |
| 1788094802 | 26.11° C | 95% | 1021.2 hPa | 0 mm | - | 75 W/m² | - |
| 1788094497 | 25.56° C | 96% | 1021.5 hPa | 0 mm | - | 66 W/m² | - |
| 1788094196 | 25° C | 97% | 1021.3 hPa | 0 mm | - | 56 W/m² | - |
| 1788093891 | 25° C | 98% | 1021.3 hPa | 0 mm | - | 51 W/m² | - |
| 1788093587 | 24.44° C | 98% | 1021.3 hPa | 0 mm | - | 39 W/m² | - |
| 1788093284 | 24.44° C | 98% | 1021.2 hPa | 0 mm | - | 33 W/m² | - |
| 1788092982 | 23.89° C | 99% | 1021.1 hPa | 0 mm | - | 27 W/m² | - |
| 1788092681 | 23.89° C | 99% | 1021.3 hPa | 0 mm | - | 22 W/m² | - |
| 1788092376 | 23.89° C | 99% | 1021 hPa | 0 mm | - | 18 W/m² | - |
| 1788092071 | 23.89° C | 99% | 1021 hPa | 0 mm | - | 14 W/m² | - |
| 1788091766 | 23.89° C | 98% | 1021.2 hPa | 0 mm | - | 10 W/m² | - |
| 1788091461 | 23.89° C | 98% | 1021.2 hPa | 0 mm | - | 6 W/m² | - |
| 1788091158 | 23.89° C | 98% | 1021.1 hPa | 0 mm | - | 4 W/m² | - |
| 1788090854 | 23.89° C | 98% | 1020.9 hPa | 0 mm | - | 2 W/m² | - |
| 1788090549 | 23.89° C | 98% | 1020.8 hPa | 0 mm | - | 1 W/m² | - |
| 1788090246 | 23.89° C | 98% | 1020.8 hPa | 0 mm | - | 0 W/m² | - |
| 1788089945 | 24.44° C | 98% | 1020.7 hPa | 0 mm | - | 0 W/m² | - |
| 1788089641 | 24.44° C | 98% | 1020.8 hPa | 0 mm | - | 0 W/m² | - |
| 1788089336 | 24.44° C | 98% | 1020.7 hPa | 0 mm | - | 0 W/m² | - |
| 1788089032 | 25° C | 98% | 1020.7 hPa | 0 mm | - | 0 W/m² | - |
| 1788088728 | 25° C | 98% | 1020.5 hPa | 0 mm | - | 0 W/m² | - |
* Rain latest hour (hover to see other rain measurements)
** Current wind speed in m/s (hover to see current wind gust speed)